Station Historical Data
Daily Summary for February 2, 2018 Units:  Both    English   Metric
« Previous Day
Next Day »
Daily Weekly Monthly Yearly Custom
  High: Low: Average:
Temperature: TemperatureF °F /  -17.8 °C 11.9 °F /  -11.2 °C 14.1 °F /  -9.9 °C
Dew Point: DewpointF °F /  -17.8 °C 0.9 °F /  -17.3 °C 5.4 °F /  -14.8 °C
Humidity: Humidity% 56% 68%
Wind Speed: WindSpeedMPHmph /  0km/h - 6mph /  9.7km/h
Wind Gust: WindSpeedGustMPHmph /  0km/h - -
Wind- - West
Pressure: PressureIn in /  0 hPa 30.07 in /  1018.2 hPa -
Precipitation: 0.00 in /  0 mm    
Historical Graphs
 
 
Tabular Data for February 2, 2018
Time Temperature Dew Point Pressure Wind Wind Speed Wind Gust Humidity Rainfall Rate (Hourly)
TemperatureF °F /  -17.8 °C DewpointF °F /  -17.8 °C PressureInin /  0hPa Calm     Humidity% HourlyPrecipInin /  0mm
00:04 18.5 °F /  -7.5 °C 11.6 °F /  -11.3 °C 30.07in /  1018.2hPa WNW 3.0mph /  4.8km/h 10.0mph /  16.1km/h 74% 0.00in /  0mm
00:09 18.5 °F /  -7.5 °C 11.9 °F /  -11.2 °C 30.07in /  1018.2hPa NW 5.0mph /  8km/h 9.0mph /  14.5km/h 75% 0.00in /  0mm
00:14 18.5 °F /  -7.5 °C 11.9 °F /  -11.2 °C 30.07in /  1018.2hPa NW 6.0mph /  9.7km/h 10.0mph /  16.1km/h 75% 0.00in /  0mm
00:19 18.2 °F /  -7.7 °C 11.6 °F /  -11.3 °C 30.07in /  1018.2hPa WNW 7.0mph /  11.3km/h 13.0mph /  20.9km/h 75% 0.00in /  0mm
00:24 18.0 °F /  -7.8 °C 11.7 °F /  -11.3 °C 30.07in /  1018.2hPa WNW 7.0mph /  11.3km/h 13.0mph /  20.9km/h 76% 0.00in /  0mm
00:29 18.0 °F /  -7.8 °C 11.7 °F /  -11.3 °C 30.07in /  1018.2hPa NW 5.0mph /  8km/h 11.0mph /  17.7km/h 76% 0.00in /  0mm
00:34 18.0 °F /  -7.8 °C 11.7 °F /  -11.3 °C 30.07in /  1018.2hPa WNW 7.0mph /  11.3km/h 11.0mph /  17.7km/h 76% 0.00in /  0mm
00:39 17.8 °F /  -7.9 °C 11.5 °F /  -11.4 °C 30.07in /  1018.2hPa West 3.0mph /  4.8km/h 11.0mph /  17.7km/h 76% 0.00in /  0mm
00:44 17.7 °F /  -7.9 °C 11.4 °F /  -11.4 °C 30.07in /  1018.2hPa WNW 11.0mph /  17.7km/h 11.0mph /  17.7km/h 76% 0.00in /  0mm
00:49 17.6 °F /  -8 °C 11.3 °F /  -11.5 °C 30.07in /  1018.2hPa WNW 5.0mph /  8km/h 12.0mph /  19.3km/h 76% 0.00in /  0mm
00:54 17.6 °F /  -8 °C 11.0 °F /  -11.7 °C 30.07in /  1018.2hPa West 6.0mph /  9.7km/h 12.0mph /  19.3km/h 75% 0.00in /  0mm
00:59 17.6 °F /  -8 °C 10.7 °F /  -11.8 °C 30.07in /  1018.2hPa West 6.0mph /  9.7km/h 10.0mph /  16.1km/h 74% 0.00in /  0mm
01:04 17.7 °F /  -7.9 °C 10.5 °F /  -11.9 °C 30.07in /  1018.2hPa West 5.0mph /  8km/h 9.0mph /  14.5km/h 73% 0.00in /  0mm
01:09 17.7 °F /  -7.9 °C 9.9 °F /  -12.3 °C 30.07in /  1018.2hPa West 5.0mph /  8km/h 11.0mph /  17.7km/h 71% 0.00in /  0mm
01:14 17.6 °F /  -8 °C 9.2 °F /  -12.7 °C 30.08in /  1018.5hPa North 7.0mph /  11.3km/h 14.0mph /  22.5km/h 69% 0.00in /  0mm
01:19 17.5 °F /  -8.1 °C 8.4 °F /  -13.1 °C 30.08in /  1018.5hPa West 7.0mph /  11.3km/h 16.0mph /  25.7km/h 67% 0.00in /  0mm
01:24 17.3 °F /  -8.2 °C 7.9 °F /  -13.4 °C 30.08in /  1018.5hPa WNW 7.0mph /  11.3km/h 16.0mph /  25.7km/h 66% 0.00in /  0mm
01:29 17.2 °F /  -8.2 °C 7.8 °F /  -13.4 °C 30.08in /  1018.5hPa WNW 3.0mph /  4.8km/h 11.0mph /  17.7km/h 66% 0.00in /  0mm
01:34 17.0 °F /  -8.3 °C 7.3 °F /  -13.7 °C 30.08in /  1018.5hPa WNW 7.0mph /  11.3km/h 14.0mph /  22.5km/h 65% 0.00in /  0mm
01:39 16.6 °F /  -8.6 °C 6.5 °F /  -14.2 °C 30.08in /  1018.5hPa WNW 3.0mph /  4.8km/h 14.0mph /  22.5km/h 64% 0.00in /  0mm
01:44 16.4 °F /  -8.7 °C 6.7 °F /  -14.1 °C 30.08in /  1018.5hPa NW 8.0mph /  12.9km/h 11.0mph /  17.7km/h 65% 0.00in /  0mm
01:49 16.1 °F /  -8.8 °C 6.4 °F /  -14.2 °C 30.08in /  1018.5hPa West 5.0mph /  8km/h 16.0mph /  25.7km/h 65% 0.00in /  0mm
01:54 16.0 °F /  -8.9 °C 6.3 °F /  -14.3 °C 30.08in /  1018.5hPa WNW 7.0mph /  11.3km/h 16.0mph /  25.7km/h 65% 0.00in /  0mm
01:59 15.9 °F /  -8.9 °C 6.2 °F /  -14.3 °C 30.09in /  1018.8hPa WNW 6.0mph /  9.7km/h 12.0mph /  19.3km/h 65% 0.00in /  0mm
02:04 15.8 °F /  -9 °C 6.4 °F /  -14.2 °C 30.09in /  1018.8hPa WNW 6.0mph /  9.7km/h 13.0mph /  20.9km/h 66% 0.00in /  0mm
02:09 15.7 °F /  -9.1 °C 6.3 °F /  -14.3 °C 30.09in /  1018.8hPa West 7.0mph /  11.3km/h 15.0mph /  24.1km/h 66% 0.00in /  0mm
02:14 15.6 °F /  -9.1 °C 6.6 °F /  -14.1 °C 30.09in /  1018.8hPa West 6.0mph /  9.7km/h 13.0mph /  20.9km/h 67% 0.00in /  0mm
02:19 15.4 °F /  -9.2 °C 6.7 °F /  -14.1 °C 30.09in /  1018.8hPa West 7.0mph /  11.3km/h 13.0mph /  20.9km/h 68% 0.00in /  0mm
02:24 15.4 °F /  -9.2 °C 6.7 °F /  -14.1 °C 30.10in /  1019.2hPa WNW 6.0mph /  9.7km/h 13.0mph /  20.9km/h 68% 0.00in /  0mm
02:29 15.3 °F /  -9.3 °C 6.6 °F /  -14.1 °C 30.10in /  1019.2hPa WNW 6.0mph /  9.7km/h 14.0mph /  22.5km/h 68% 0.00in /  0mm
02:34 15.1 °F /  -9.4 °C 6.4 °F /  -14.2 °C 30.10in /  1019.2hPa WNW 6.0mph /  9.7km/h 14.0mph /  22.5km/h 68% 0.00in /  0mm
02:39 15.2 °F /  -9.3 °C 6.5 °F /  -14.2 °C 30.10in /  1019.2hPa WNW 8.0mph /  12.9km/h 15.0mph /  24.1km/h 68% 0.00in /  0mm
02:44 15.1 °F /  -9.4 °C 6.4 °F /  -14.2 °C 30.10in /  1019.2hPa WNW 13.0mph /  20.9km/h 13.0mph /  20.9km/h 68% 0.00in /  0mm
02:49 15.1 °F /  -9.4 °C 6.4 °F /  -14.2 °C 30.10in /  1019.2hPa NNW 4.0mph /  6.4km/h 15.0mph /  24.1km/h 68% 0.00in /  0mm
02:54 15.0 °F /  -9.4 °C 6.3 °F /  -14.3 °C 30.10in /  1019.2hPa WNW 6.0mph /  9.7km/h 13.0mph /  20.9km/h 68% 0.00in /  0mm
02:59 14.8 °F /  -9.6 °C 6.1 °F /  -14.4 °C 30.10in /  1019.2hPa West 6.0mph /  9.7km/h 13.0mph /  20.9km/h 68% 0.00in /  0mm
03:04 14.7 °F /  -9.6 °C 6.0 °F /  -14.4 °C 30.10in /  1019.2hPa West 6.0mph /  9.7km/h 14.0mph /  22.5km/h 68% 0.00in /  0mm
03:09 14.5 °F /  -9.7 °C 5.9 °F /  -14.5 °C 30.10in /  1019.2hPa West 10.0mph /  16.1km/h 11.0mph /  17.7km/h 68% 0.00in /  0mm
03:14 14.4 °F /  -9.8 °C 5.8 °F /  -14.6 °C 30.10in /  1019.2hPa West 6.0mph /  9.7km/h 10.0mph /  16.1km/h 68% 0.00in /  0mm
03:19 14.4 °F /  -9.8 °C 6.1 °F /  -14.4 °C 30.10in /  1019.2hPa WNW 3.0mph /  4.8km/h 12.0mph /  19.3km/h 69% 0.00in /  0mm
03:24 14.3 °F /  -9.8 °C 6.0 °F /  -14.4 °C 30.10in /  1019.2hPa West 7.0mph /  11.3km/h 13.0mph /  20.9km/h 69% 0.00in /  0mm
03:29 14.3 °F /  -9.8 °C 6.0 °F /  -14.4 °C 30.10in /  1019.2hPa WNW 6.0mph /  9.7km/h 13.0mph /  20.9km/h 69% 0.00in /  0mm
03:34 14.3 °F /  -9.8 °C 6.0 °F /  -14.4 °C 30.11in /  1019.5hPa West 6.0mph /  9.7km/h 13.0mph /  20.9km/h 69% 0.00in /  0mm
03:39 14.2 °F /  -9.9 °C 5.9 °F /  -14.5 °C 30.11in /  1019.5hPa West 6.0mph /  9.7km/h 13.0mph /  20.9km/h 69% 0.00in /  0mm
03:49 14.2 °F /  -9.9 °C 6.2 °F /  -14.3 °C 30.11in /  1019.5hPa West 8.0mph /  12.9km/h 9.0mph /  14.5km/h 70% 0.00in /  0mm
03:54 14.2 °F /  -9.9 °C 6.2 °F /  -14.3 °C 30.11in /  1019.5hPa West 5.0mph /  8km/h 13.0mph /  20.9km/h 70% 0.00in /  0mm
03:59 14.2 °F /  -9.9 °C 6.2 °F /  -14.3 °C 30.11in /  1019.5hPa West 5.0mph /  8km/h 12.0mph /  19.3km/h 70% 0.00in /  0mm
04:04 14.1 °F /  -9.9 °C 6.1 °F /  -14.4 °C 30.11in /  1019.5hPa NW 6.0mph /  9.7km/h 11.0mph /  17.7km/h 70% 0.00in /  0mm
04:09 14.0 °F /  -10 °C 6.0 °F /  -14.4 °C 30.11in /  1019.5hPa West 6.0mph /  9.7km/h 13.0mph /  20.9km/h 70% 0.00in /  0mm
04:14 14.0 °F /  -10 °C 6.0 °F /  -14.4 °C 30.11in /  1019.5hPa WNW 7.0mph /  11.3km/h 15.0mph /  24.1km/h 70% 0.00in /  0mm
04:24 13.9 °F /  -10.1 °C 6.2 °F /  -14.3 °C 30.12in /  1019.9hPa West 10.0mph /  16.1km/h 17.0mph /  27.4km/h 71% 0.00in /  0mm
04:29 13.9 °F /  -10.1 °C 6.2 °F /  -14.3 °C 30.12in /  1019.9hPa West 10.0mph /  16.1km/h 15.0mph /  24.1km/h 71% 0.00in /  0mm
04:34 13.9 °F /  -10.1 °C 6.2 °F /  -14.3 °C 30.12in /  1019.9hPa West 8.0mph /  12.9km/h 15.0mph /  24.1km/h 71% 0.00in /  0mm
04:39 13.9 °F /  -10.1 °C 6.5 °F /  -14.2 °C 30.12in /  1019.9hPa West 7.0mph /  11.3km/h 14.0mph /  22.5km/h 72% 0.00in /  0mm
04:44 14.0 °F /  -10 °C 6.6 °F /  -14.1 °C 30.12in /  1019.9hPa West 7.0mph /  11.3km/h 14.0mph /  22.5km/h 72% 0.00in /  0mm
04:49 14.0 °F /  -10 °C 6.6 °F /  -14.1 °C 30.12in /  1019.9hPa West 8.0mph /  12.9km/h 15.0mph /  24.1km/h 72% 0.00in /  0mm
04:54 14.0 °F /  -10 °C 6.6 °F /  -14.1 °C 30.12in /  1019.9hPa West 8.0mph /  12.9km/h 16.0mph /  25.7km/h 72% 0.00in /  0mm
04:59 14.1 °F /  -9.9 °C 7.0 °F /  -13.9 °C 30.13in /  1020.2hPa West 8.0mph /  12.9km/h 16.0mph /  25.7km/h 73% 0.00in /  0mm
05:04 14.1 °F /  -9.9 °C 7.0 °F /  -13.9 °C 30.13in /  1020.2hPa West 11.0mph /  17.7km/h 13.0mph /  20.9km/h 73% 0.00in /  0mm
05:09 14.1 °F /  -9.9 °C 7.0 °F /  -13.9 °C 30.13in /  1020.2hPa West 7.0mph /  11.3km/h 14.0mph /  22.5km/h 73% 0.00in /  0mm
05:14 14.1 °F /  -9.9 °C 7.0 °F /  -13.9 °C 30.13in /  1020.2hPa West 5.0mph /  8km/h 13.0mph /  20.9km/h 73% 0.00in /  0mm
05:19 13.9 °F /  -10.1 °C 7.1 °F /  -13.8 °C 30.13in /  1020.2hPa West 9.0mph /  14.5km/h 16.0mph /  25.7km/h 74% 0.00in /  0mm
05:24 13.8 °F /  -10.1 °C 6.7 °F /  -14.1 °C 30.14in /  1020.5hPa WNW 8.0mph /  12.9km/h 14.0mph /  22.5km/h 73% 0.00in /  0mm
05:29 13.7 °F /  -10.2 °C 6.9 °F /  -13.9 °C 30.13in /  1020.2hPa West 7.0mph /  11.3km/h 12.0mph /  19.3km/h 74% 0.00in /  0mm
05:34 13.6 °F /  -10.2 °C 6.8 °F /  -14 °C 30.14in /  1020.5hPa WNW 7.0mph /  11.3km/h 14.0mph /  22.5km/h 74% 0.00in /  0mm
05:39 13.5 °F /  -10.3 °C 6.8 °F /  -14 °C 30.14in /  1020.5hPa West 7.0mph /  11.3km/h 14.0mph /  22.5km/h 74% 0.00in /  0mm
05:44 13.4 °F /  -10.3 °C 6.7 °F /  -14.1 °C 30.14in /  1020.5hPa West 6.0mph /  9.7km/h 14.0mph /  22.5km/h 74% 0.00in /  0mm
05:49 13.3 °F /  -10.4 °C 6.6 °F /  -14.1 °C 30.15in /  1020.9hPa West 6.0mph /  9.7km/h 14.0mph /  22.5km/h 74% 0.00in /  0mm
05:54 13.2 °F /  -10.4 °C 6.8 °F /  -14 °C 30.15in /  1020.9hPa West 6.0mph /  9.7km/h 13.0mph /  20.9km/h 75% 0.00in /  0mm
05:59 13.1 °F /  -10.5 °C 6.7 °F /  -14.1 °C 30.15in /  1020.9hPa West 6.0mph /  9.7km/h 11.0mph /  17.7km/h 75% 0.00in /  0mm
06:04 13.1 °F /  -10.5 °C 6.7 °F /  -14.1 °C 30.15in /  1020.9hPa WSW 7.0mph /  11.3km/h 11.0mph /  17.7km/h 75% 0.00in /  0mm
06:09 13.1 °F /  -10.5 °C 6.7 °F /  -14.1 °C 30.16in /  1021.2hPa WNW 4.0mph /  6.4km/h 11.0mph /  17.7km/h 75% 0.00in /  0mm
06:14 13.1 °F /  -10.5 °C 6.7 °F /  -14.1 °C 30.16in /  1021.2hPa West 7.0mph /  11.3km/h 14.0mph /  22.5km/h 75% 0.00in /  0mm
06:19 13.2 °F /  -10.4 °C 6.8 °F /  -14 °C 30.16in /  1021.2hPa West 7.0mph /  11.3km/h 14.0mph /  22.5km/h 75% 0.00in /  0mm
06:24 13.2 °F /  -10.4 °C 6.8 °F /  -14 °C 30.16in /  1021.2hPa WSW 5.0mph /  8km/h 14.0mph /  22.5km/h 75% 0.00in /  0mm
06:29 13.2 °F /  -10.4 °C 6.8 °F /  -14 °C 30.16in /  1021.2hPa West 10.0mph /  16.1km/h 11.0mph /  17.7km/h 75% 0.00in /  0mm
06:34 13.3 °F /  -10.4 °C 7.1 °F /  -13.8 °C 30.17in /  1021.6hPa WNW 5.0mph /  8km/h 11.0mph /  17.7km/h 76% 0.00in /  0mm
06:39 13.4 °F /  -10.3 °C 7.0 °F /  -13.9 °C 30.17in /  1021.6hPa West 4.0mph /  6.4km/h 12.0mph /  19.3km/h 75% 0.00in /  0mm
06:44 13.3 °F /  -10.4 °C 7.1 °F /  -13.8 °C 30.17in /  1021.6hPa West 7.0mph /  11.3km/h 15.0mph /  24.1km/h 76% 0.00in /  0mm
06:49 13.3 °F /  -10.4 °C 7.1 °F /  -13.8 °C 30.17in /  1021.6hPa West 7.0mph /  11.3km/h 15.0mph /  24.1km/h 76% 0.00in /  0mm
06:54 13.3 °F /  -10.4 °C 7.1 °F /  -13.8 °C 30.17in /  1021.6hPa West 7.0mph /  11.3km/h 15.0mph /  24.1km/h 76% 0.00in /  0mm
06:59 13.3 °F /  -10.4 °C 7.4 °F /  -13.7 °C 30.18in /  1021.9hPa West 6.0mph /  9.7km/h 14.0mph /  22.5km/h 77% 0.00in /  0mm
07:04 13.3 °F /  -10.4 °C 7.4 °F /  -13.7 °C 30.18in /  1021.9hPa West 7.0mph /  11.3km/h 12.0mph /  19.3km/h 77% 0.00in /  0mm
07:09 13.4 °F /  -10.3 °C 7.5 °F /  -13.6 °C 30.18in /  1021.9hPa WNW 6.0mph /  9.7km/h 10.0mph /  16.1km/h 77% 0.00in /  0mm
07:14 13.5 °F /  -10.3 °C 7.6 °F /  -13.6 °C 30.18in /  1021.9hPa WSW 5.0mph /  8km/h 11.0mph /  17.7km/h 77% 0.00in /  0mm
07:19 13.5 °F /  -10.3 °C 7.9 °F /  -13.4 °C 30.19in /  1022.2hPa West 6.0mph /  9.7km/h 12.0mph /  19.3km/h 78% 0.00in /  0mm
07:24 13.4 °F /  -10.3 °C 7.8 °F /  -13.4 °C 30.19in /  1022.2hPa NW 6.0mph /  9.7km/h 11.0mph /  17.7km/h 78% 0.00in /  0mm
07:29 13.4 °F /  -10.3 °C 7.8 °F /  -13.4 °C 30.19in /  1022.2hPa West 3.0mph /  4.8km/h 12.0mph /  19.3km/h 78% 0.00in /  0mm
07:34 13.3 °F /  -10.4 °C 7.7 °F /  -13.5 °C 30.20in /  1022.6hPa WNW 5.0mph /  8km/h 12.0mph /  19.3km/h 78% 0.00in /  0mm
07:39 13.3 °F /  -10.4 °C 8.0 °F /  -13.3 °C 30.20in /  1022.6hPa West 9.0mph /  14.5km/h 12.0mph /  19.3km/h 79% 0.00in /  0mm
07:44 13.3 °F /  -10.4 °C 8.0 °F /  -13.3 °C 30.20in /  1022.6hPa NW 5.0mph /  8km/h 12.0mph /  19.3km/h 79% 0.00in /  0mm
07:49 13.2 °F /  -10.4 °C 7.9 °F /  -13.4 °C 30.21in /  1022.9hPa WNW 6.0mph /  9.7km/h 12.0mph /  19.3km/h 79% 0.00in /  0mm
07:54 13.2 °F /  -10.4 °C 8.2 °F /  -13.2 °C 30.21in /  1022.9hPa WNW 5.0mph /  8km/h 11.0mph /  17.7km/h 80% 0.00in /  0mm
07:59 13.0 °F /  -10.6 °C 8.0 °F /  -13.3 °C 30.21in /  1022.9hPa WNW 5.0mph /  8km/h 11.0mph /  17.7km/h 80% 0.00in /  0mm
08:04 12.9 °F /  -10.6 °C 7.9 °F /  -13.4 °C 30.22in /  1023.2hPa WNW 4.0mph /  6.4km/h 11.0mph /  17.7km/h 80% 0.00in /  0mm
08:09 12.7 °F /  -10.7 °C 7.7 °F /  -13.5 °C 30.22in /  1023.2hPa NW 4.0mph /  6.4km/h 11.0mph /  17.7km/h 80% 0.00in /  0mm
08:14 12.6 °F /  -10.8 °C 7.6 °F /  -13.6 °C 30.23in /  1023.6hPa NW 5.0mph /  8km/h 11.0mph /  17.7km/h 80% 0.00in /  0mm
08:19 12.5 °F /  -10.8 °C 7.5 °F /  -13.6 °C 30.23in /  1023.6hPa WNW 4.0mph /  6.4km/h 12.0mph /  19.3km/h 80% 0.00in /  0mm
08:24 12.4 °F /  -10.9 °C 7.4 °F /  -13.7 °C 30.24in /  1023.9hPa West 13.0mph /  20.9km/h 15.0mph /  24.1km/h 80% 0.00in /  0mm
08:29 12.3 °F /  -10.9 °C 6.7 °F /  -14.1 °C 30.24in /  1023.9hPa West 7.0mph /  11.3km/h 14.0mph /  22.5km/h 78% 0.00in /  0mm
08:34 12.3 °F /  -10.9 °C 6.2 °F /  -14.3 °C 30.24in /  1023.9hPa WNW 9.0mph /  14.5km/h 17.0mph /  27.4km/h 76% 0.00in /  0mm
08:39 12.3 °F /  -10.9 °C 5.6 °F /  -14.7 °C 30.25in /  1024.3hPa NW 9.0mph /  14.5km/h 14.0mph /  22.5km/h 74% 0.00in /  0mm
08:44 12.3 °F /  -10.9 °C 5.0 °F /  -15 °C 30.25in /  1024.3hPa NW 11.0mph /  17.7km/h 18.0mph /  29km/h 72% 0.00in /  0mm
08:49 12.2 °F /  -11 °C 4.3 °F /  -15.4 °C 30.26in /  1024.6hPa West 3.0mph /  4.8km/h 15.0mph /  24.1km/h 70% 0.00in /  0mm
08:54 12.8 °F /  -10.7 °C 4.5 °F /  -15.3 °C 30.26in /  1024.6hPa WNW 7.0mph /  11.3km/h 15.0mph /  24.1km/h 69% 0.00in /  0mm
08:59 13.0 °F /  -10.6 °C 4.4 °F /  -15.3 °C 30.26in /  1024.6hPa WNW 8.0mph /  12.9km/h 16.0mph /  25.7km/h 68% 0.00in /  0mm
09:04 12.8 °F /  -10.7 °C 4.2 °F /  -15.4 °C 30.26in /  1024.6hPa West 9.0mph /  14.5km/h 17.0mph /  27.4km/h 68% 0.00in /  0mm
09:09 12.6 °F /  -10.8 °C 4.0 °F /  -15.6 °C 30.27in /  1024.9hPa West 8.0mph /  12.9km/h 17.0mph /  27.4km/h 68% 0.00in /  0mm
09:14 12.5 °F /  -10.8 °C 3.9 °F /  -15.6 °C 30.27in /  1024.9hPa WNW 8.0mph /  12.9km/h 14.0mph /  22.5km/h 68% 0.00in /  0mm
09:19 12.4 °F /  -10.9 °C 3.8 °F /  -15.7 °C 30.27in /  1024.9hPa West 8.0mph /  12.9km/h 14.0mph /  22.5km/h 68% 0.00in /  0mm
09:24 12.8 °F /  -10.7 °C 4.2 °F /  -15.4 °C 30.27in /  1024.9hPa NW 4.0mph /  6.4km/h 15.0mph /  24.1km/h 68% 0.00in /  0mm
09:29 13.0 °F /  -10.6 °C 4.4 °F /  -15.3 °C 30.27in /  1024.9hPa WNW 6.0mph /  9.7km/h 15.0mph /  24.1km/h 68% 0.00in /  0mm
09:34 12.8 °F /  -10.7 °C 3.9 °F /  -15.6 °C 30.28in /  1025.3hPa WNW 9.0mph /  14.5km/h 18.0mph /  29km/h 67% 0.00in /  0mm
09:39 12.8 °F /  -10.7 °C 3.9 °F /  -15.6 °C 30.28in /  1025.3hPa West 9.0mph /  14.5km/h 15.0mph /  24.1km/h 67% 0.00in /  0mm
09:44 12.7 °F /  -10.7 °C 3.8 °F /  -15.7 °C 30.28in /  1025.3hPa WNW 7.0mph /  11.3km/h 13.0mph /  20.9km/h 67% 0.00in /  0mm
09:49 12.6 °F /  -10.8 °C 3.7 °F /  -15.7 °C 30.28in /  1025.3hPa SW 6.0mph /  9.7km/h 13.0mph /  20.9km/h 67% 0.00in /  0mm
09:54 12.8 °F /  -10.7 °C 3.9 °F /  -15.6 °C 30.28in /  1025.3hPa WNW 8.0mph /  12.9km/h 14.0mph /  22.5km/h 67% 0.00in /  0mm
09:59 12.7 °F /  -10.7 °C 3.8 °F /  -15.7 °C 30.29in /  1025.6hPa West 8.0mph /  12.9km/h 14.0mph /  22.5km/h 67% 0.00in /  0mm
10:04 12.5 °F /  -10.8 °C 3.6 °F /  -15.8 °C 30.29in /  1025.6hPa WNW 7.0mph /  11.3km/h 16.0mph /  25.7km/h 67% 0.00in /  0mm
10:09 12.4 °F /  -10.9 °C 3.8 °F /  -15.7 °C 30.29in /  1025.6hPa NW 10.0mph /  16.1km/h 15.0mph /  24.1km/h 68% 0.00in /  0mm
10:14 12.5 °F /  -10.8 °C 4.3 °F /  -15.4 °C 30.30in /  1026hPa WNW 8.0mph /  12.9km/h 15.0mph /  24.1km/h 69% 0.00in /  0mm
10:19 12.8 °F /  -10.7 °C 4.2 °F /  -15.4 °C 30.30in /  1026hPa WNW 8.0mph /  12.9km/h 14.0mph /  22.5km/h 68% 0.00in /  0mm
10:24 12.6 °F /  -10.8 °C 4.3 °F /  -15.4 °C 30.30in /  1026hPa NW 5.0mph /  8km/h 13.0mph /  20.9km/h 69% 0.00in /  0mm
10:29 12.6 °F /  -10.8 °C 4.7 °F /  -15.2 °C 30.30in /  1026hPa NW 6.0mph /  9.7km/h 13.0mph /  20.9km/h 70% 0.00in /  0mm
10:34 12.2 °F /  -11 °C 3.3 °F /  -15.9 °C 30.30in /  1026hPa NNW 5.0mph /  8km/h 13.0mph /  20.9km/h 67% 0.00in /  0mm
10:39 11.9 °F /  -11.2 °C 2.4 °F /  -16.4 °C 30.31in /  1026.3hPa North 8.0mph /  12.9km/h 15.0mph /  24.1km/h 65% 0.00in /  0mm
10:44 12.5 °F /  -10.8 °C 2.6 °F /  -16.3 °C 30.30in /  1026hPa NW 5.0mph /  8km/h 16.0mph /  25.7km/h 64% 0.00in /  0mm
10:49 13.4 °F /  -10.3 °C 3.5 °F /  -15.8 °C 30.30in /  1026hPa WNW 5.0mph /  8km/h 14.0mph /  22.5km/h 64% 0.00in /  0mm
10:54 13.7 °F /  -10.2 °C 3.8 °F /  -15.7 °C 30.31in /  1026.3hPa NW 9.0mph /  14.5km/h 14.0mph /  22.5km/h 64% 0.00in /  0mm
10:59 13.7 °F /  -10.2 °C 3.8 °F /  -15.7 °C 30.31in /  1026.3hPa WNW 9.0mph /  14.5km/h 15.0mph /  24.1km/h 64% 0.00in /  0mm
11:04 14.1 °F /  -9.9 °C 4.1 °F /  -15.5 °C 30.31in /  1026.3hPa WNW 8.0mph /  12.9km/h 15.0mph /  24.1km/h 64% 0.00in /  0mm
11:09 14.1 °F /  -9.9 °C 4.8 °F /  -15.1 °C 30.31in /  1026.3hPa WNW 8.0mph /  12.9km/h 14.0mph /  22.5km/h 66% 0.00in /  0mm
11:14 14.5 °F /  -9.7 °C 4.9 °F /  -15.1 °C 30.31in /  1026.3hPa WNW 7.0mph /  11.3km/h 14.0mph /  22.5km/h 65% 0.00in /  0mm
11:19 14.3 °F /  -9.8 °C 4.0 °F /  -15.6 °C 30.31in /  1026.3hPa WNW 7.0mph /  11.3km/h 16.0mph /  25.7km/h 63% 0.00in /  0mm
11:24 14.0 °F /  -10 °C 4.1 °F /  -15.5 °C 30.32in /  1026.6hPa WNW 8.0mph /  12.9km/h 16.0mph /  25.7km/h 64% 0.00in /  0mm
11:29 14.2 °F /  -9.9 °C 4.6 °F /  -15.2 °C 30.32in /  1026.6hPa WSW 12.0mph /  19.3km/h 19.0mph /  30.6km/h 65% 0.00in /  0mm
11:34 14.0 °F /  -10 °C 5.1 °F /  -14.9 °C 30.32in /  1026.6hPa NW 7.0mph /  11.3km/h 19.0mph /  30.6km/h 67% 0.00in /  0mm
11:39 13.4 °F /  -10.3 °C 5.1 °F /  -14.9 °C 30.32in /  1026.6hPa NW 3.0mph /  4.8km/h 12.0mph /  19.3km/h 69% 0.00in /  0mm
11:44 12.5 °F /  -10.8 °C 4.6 °F /  -15.2 °C 30.32in /  1026.6hPa NW 6.0mph /  9.7km/h 15.0mph /  24.1km/h 70% 0.00in /  0mm
11:49 12.5 °F /  -10.8 °C 4.9 °F /  -15.1 °C 30.32in /  1026.6hPa WNW 4.0mph /  6.4km/h 12.0mph /  19.3km/h 71% 0.00in /  0mm
11:54 12.8 °F /  -10.7 °C 4.9 °F /  -15.1 °C 30.32in /  1026.6hPa WNW 8.0mph /  12.9km/h 13.0mph /  20.9km/h 70% 0.00in /  0mm
11:59 13.5 °F /  -10.3 °C 4.9 °F /  -15.1 °C 30.32in /  1026.6hPa NNW 12.0mph /  19.3km/h 15.0mph /  24.1km/h 68% 0.00in /  0mm
12:04 13.7 °F /  -10.2 °C 4.4 °F /  -15.3 °C 30.32in /  1026.6hPa NW 7.0mph /  11.3km/h 15.0mph /  24.1km/h 66% 0.00in /  0mm
12:09 14.5 °F /  -9.7 °C 5.2 °F /  -14.9 °C 30.32in /  1026.6hPa WNW 6.0mph /  9.7km/h 15.0mph /  24.1km/h 66% 0.00in /  0mm
12:14 15.0 °F /  -9.4 °C 5.0 °F /  -15 °C 30.32in /  1026.6hPa WNW 6.0mph /  9.7km/h 16.0mph /  25.7km/h 64% 0.00in /  0mm
12:19 15.1 °F /  -9.4 °C 5.8 °F /  -14.6 °C 30.32in /  1026.6hPa WNW 8.0mph /  12.9km/h 17.0mph /  27.4km/h 66% 0.00in /  0mm
12:24 15.3 °F /  -9.3 °C 6.0 °F /  -14.4 °C 30.33in /  1027hPa WNW 3.0mph /  4.8km/h 12.0mph /  19.3km/h 66% 0.00in /  0mm
12:29 14.8 °F /  -9.6 °C 5.2 °F /  -14.9 °C 30.33in /  1027hPa NW 6.0mph /  9.7km/h 14.0mph /  22.5km/h 65% 0.00in /  0mm
12:34 13.8 °F /  -10.1 °C 4.9 °F /  -15.1 °C 30.33in /  1027hPa WNW 6.0mph /  9.7km/h 15.0mph /  24.1km/h 67% 0.00in /  0mm
12:39 13.4 °F /  -10.3 °C 4.5 °F /  -15.3 °C 30.33in /  1027hPa WNW 6.0mph /  9.7km/h 12.0mph /  19.3km/h 67% 0.00in /  0mm
12:44 13.5 °F /  -10.3 °C 4.6 °F /  -15.2 °C 30.33in /  1027hPa West 6.0mph /  9.7km/h 12.0mph /  19.3km/h 67% 0.00in /  0mm
12:49 13.6 °F /  -10.2 °C 5.0 °F /  -15 °C 30.33in /  1027hPa NW 9.0mph /  14.5km/h 9.0mph /  14.5km/h 68% 0.00in /  0mm
12:54 13.9 °F /  -10.1 °C 5.3 °F /  -14.8 °C 30.33in /  1027hPa North 6.0mph /  9.7km/h 12.0mph /  19.3km/h 68% 0.00in /  0mm
12:59 13.7 °F /  -10.2 °C 4.4 °F /  -15.3 °C 30.33in /  1027hPa WSW 5.0mph /  8km/h 13.0mph /  20.9km/h 66% 0.00in /  0mm
13:04 13.8 °F /  -10.1 °C 4.5 °F /  -15.3 °C 30.33in /  1027hPa West 5.0mph /  8km/h 17.0mph /  27.4km/h 66% 0.00in /  0mm
13:09 13.6 °F /  -10.2 °C 4.0 °F /  -15.6 °C 30.33in /  1027hPa WNW 8.0mph /  12.9km/h 17.0mph /  27.4km/h 65% 0.00in /  0mm
13:14 13.8 °F /  -10.1 °C 4.5 °F /  -15.3 °C 30.33in /  1027hPa WNW 7.0mph /  11.3km/h 14.0mph /  22.5km/h 66% 0.00in /  0mm
13:19 14.5 °F /  -9.7 °C 5.5 °F /  -14.7 °C 30.33in /  1027hPa WNW 5.0mph /  8km/h 12.0mph /  19.3km/h 67% 0.00in /  0mm
13:24 14.3 °F /  -9.8 °C 5.0 °F /  -15 °C 30.33in /  1027hPa WNW 5.0mph /  8km/h 12.0mph /  19.3km/h 66% 0.00in /  0mm
13:29 14.3 °F /  -9.8 °C 5.7 °F /  -14.6 °C 30.33in /  1027hPa NNW 1.0mph /  1.6km/h 12.0mph /  19.3km/h 68% 0.00in /  0mm
13:34 13.8 °F /  -10.1 °C 5.5 °F /  -14.7 °C 30.32in /  1026.6hPa NW 4.0mph /  6.4km/h 12.0mph /  19.3km/h 69% 0.00in /  0mm
13:39 13.9 °F /  -10.1 °C 5.9 °F /  -14.5 °C 30.33in /  1027hPa NW 3.0mph /  4.8km/h 9.0mph /  14.5km/h 70% 0.00in /  0mm
13:44 14.6 °F /  -9.7 °C 6.3 °F /  -14.3 °C 30.32in /  1026.6hPa NNW 3.0mph /  4.8km/h 10.0mph /  16.1km/h 69% 0.00in /  0mm
13:49 14.9 °F /  -9.5 °C 5.2 °F /  -14.9 °C 30.33in /  1027hPa West 9.0mph /  14.5km/h 14.0mph /  22.5km/h 65% 0.00in /  0mm
13:54 15.4 °F /  -9.2 °C 6.1 °F /  -14.4 °C 30.32in /  1026.6hPa West 7.0mph /  11.3km/h 10.0mph /  16.1km/h 66% 0.00in /  0mm
13:59 15.0 °F /  -9.4 °C 5.0 °F /  -15 °C 30.32in /  1026.6hPa West 5.0mph /  8km/h 11.0mph /  17.7km/h 64% 0.00in /  0mm
14:04 14.8 °F /  -9.6 °C 4.5 °F /  -15.3 °C 30.32in /  1026.6hPa NW 6.0mph /  9.7km/h 11.0mph /  17.7km/h 63% 0.00in /  0mm
14:09 14.8 °F /  -9.6 °C 5.2 °F /  -14.9 °C 30.32in /  1026.6hPa NW 7.0mph /  11.3km/h 11.0mph /  17.7km/h 65% 0.00in /  0mm
14:14 14.5 °F /  -9.7 °C 5.5 °F /  -14.7 °C 30.32in /  1026.6hPa NW 4.0mph /  6.4km/h 12.0mph /  19.3km/h 67% 0.00in /  0mm
14:19 14.2 °F /  -9.9 °C 5.6 °F /  -14.7 °C 30.32in /  1026.6hPa WNW 5.0mph /  8km/h 12.0mph /  19.3km/h 68% 0.00in /  0mm
14:24 14.3 °F /  -9.8 °C 5.7 °F /  -14.6 °C 30.32in /  1026.6hPa NW 5.0mph /  8km/h 15.0mph /  24.1km/h 68% 0.00in /  0mm
14:29 15.8 °F /  -9 °C 7.7 °F /  -13.5 °C 30.32in /  1026.6hPa NW 5.0mph /  8km/h 15.0mph /  24.1km/h 70% 0.00in /  0mm
14:34 16.4 °F /  -8.7 °C 7.3 °F /  -13.7 °C 30.32in /  1026.6hPa NW 4.0mph /  6.4km/h 12.0mph /  19.3km/h 67% 0.00in /  0mm
14:39 16.1 °F /  -8.8 °C 5.7 °F /  -14.6 °C 30.33in /  1027hPa West 5.0mph /  8km/h 12.0mph /  19.3km/h 63% 0.00in /  0mm
14:44 15.9 °F /  -8.9 °C 5.2 °F /  -14.9 °C 30.33in /  1027hPa WNW 4.0mph /  6.4km/h 14.0mph /  22.5km/h 62% 0.00in /  0mm
14:49 14.8 °F /  -9.6 °C 4.1 °F /  -15.5 °C 30.33in /  1027hPa WNW 7.0mph /  11.3km/h 14.0mph /  22.5km/h 62% 0.00in /  0mm
14:54 14.7 °F /  -9.6 °C 4.7 °F /  -15.2 °C 30.33in /  1027hPa WNW 4.0mph /  6.4km/h 13.0mph /  20.9km/h 64% 0.00in /  0mm
14:59 16.0 °F /  -8.9 °C 4.9 °F /  -15.1 °C 30.33in /  1027hPa WNW 5.0mph /  8km/h 15.0mph /  24.1km/h 61% 0.00in /  0mm
15:04 15.6 °F /  -9.1 °C 2.7 °F /  -16.3 °C 30.33in /  1027hPa SW 12.0mph /  19.3km/h 15.0mph /  24.1km/h 56% 0.00in /  0mm
15:09 14.8 °F /  -9.6 °C 2.7 °F /  -16.3 °C 30.33in /  1027hPa West 6.0mph /  9.7km/h 14.0mph /  22.5km/h 58% 0.00in /  0mm
15:14 14.1 °F /  -9.9 °C 2.4 °F /  -16.4 °C 30.33in /  1027hPa WNW 7.0mph /  11.3km/h 12.0mph /  19.3km/h 59% 0.00in /  0mm
15:19 14.0 °F /  -10 °C 3.0 °F /  -16.1 °C 30.34in /  1027.3hPa West 7.0mph /  11.3km/h 12.0mph /  19.3km/h 61% 0.00in /  0mm
15:24 13.8 °F /  -10.1 °C 3.2 °F /  -16 °C 30.34in /  1027.3hPa WNW 6.0mph /  9.7km/h 17.0mph /  27.4km/h 62% 0.00in /  0mm
15:29 13.8 °F /  -10.1 °C 3.9 °F /  -15.6 °C 30.34in /  1027.3hPa West 4.0mph /  6.4km/h 15.0mph /  24.1km/h 64% 0.00in /  0mm
15:34 13.7 °F /  -10.2 °C 4.1 °F /  -15.5 °C 30.33in /  1027hPa West 4.0mph /  6.4km/h 10.0mph /  16.1km/h 65% 0.00in /  0mm
15:44 13.5 °F /  -10.3 °C 4.6 °F /  -15.2 °C 30.33in /  1027hPa WNW 4.0mph /  6.4km/h 11.0mph /  17.7km/h 67% 0.00in /  0mm
15:49 13.5 °F /  -10.3 °C 4.6 °F /  -15.2 °C 30.34in /  1027.3hPa WNW 4.0mph /  6.4km/h 9.0mph /  14.5km/h 67% 0.00in /  0mm
15:54 13.9 °F /  -10.1 °C 5.0 °F /  -15 °C 30.33in /  1027hPa WNW 4.0mph /  6.4km/h 10.0mph /  16.1km/h 67% 0.00in /  0mm
15:59 14.3 °F /  -9.8 °C 4.7 °F /  -15.2 °C 30.34in /  1027.3hPa WNW 4.0mph /  6.4km/h 10.0mph /  16.1km/h 65% 0.00in /  0mm
16:04 14.6 °F /  -9.7 °C 4.6 °F /  -15.2 °C 30.33in /  1027hPa WNW 4.0mph /  6.4km/h 8.0mph /  12.9km/h 64% 0.00in /  0mm
16:14 15.3 °F /  -9.3 °C 4.2 °F /  -15.4 °C 30.33in /  1027hPa West 2.0mph /  3.2km/h 12.0mph /  19.3km/h 61% 0.00in /  0mm
16:19 15.3 °F /  -9.3 °C 3.5 °F /  -15.8 °C 30.33in /  1027hPa WNW 7.0mph /  11.3km/h 15.0mph /  24.1km/h 59% 0.00in /  0mm
16:24 15.0 °F /  -9.4 °C 2.5 °F /  -16.4 °C 30.34in /  1027.3hPa WNW 7.0mph /  11.3km/h 15.0mph /  24.1km/h 57% 0.00in /  0mm
16:29 14.6 °F /  -9.7 °C 1.7 °F /  -16.8 °C 30.34in /  1027.3hPa West 7.0mph /  11.3km/h 14.0mph /  22.5km/h 56% 0.00in /  0mm
16:34 14.5 °F /  -9.7 °C 2.4 °F /  -16.4 °C 30.34in /  1027.3hPa West 7.0mph /  11.3km/h 14.0mph /  22.5km/h 58% 0.00in /  0mm
16:39 14.4 °F /  -9.8 °C 2.3 °F /  -16.5 °C 30.34in /  1027.3hPa West 7.0mph /  11.3km/h 13.0mph /  20.9km/h 58% 0.00in /  0mm
16:44 14.3 °F /  -9.8 °C 1.8 °F /  -16.8 °C 30.34in /  1027.3hPa West 7.0mph /  11.3km/h 13.0mph /  20.9km/h 57% 0.00in /  0mm
16:49 14.3 °F /  -9.8 °C 1.8 °F /  -16.8 °C 30.34in /  1027.3hPa West 7.0mph /  11.3km/h 11.0mph /  17.7km/h 57% 0.00in /  0mm
16:54 14.3 °F /  -9.8 °C 2.2 °F /  -16.6 °C 30.34in /  1027.3hPa West 6.0mph /  9.7km/h 11.0mph /  17.7km/h 58% 0.00in /  0mm
16:59 14.2 °F /  -9.9 °C 2.1 °F /  -16.6 °C 30.34in /  1027.3hPa West 6.0mph /  9.7km/h 12.0mph /  19.3km/h 58% 0.00in /  0mm
17:04 14.2 °F /  -9.9 °C 2.1 °F /  -16.6 °C 30.34in /  1027.3hPa West 6.0mph /  9.7km/h 11.0mph /  17.7km/h 58% 0.00in /  0mm
17:09 14.2 °F /  -9.9 °C 1.7 °F /  -16.8 °C 30.34in /  1027.3hPa West 5.0mph /  8km/h 14.0mph /  22.5km/h 57% 0.00in /  0mm
17:14 14.2 °F /  -9.9 °C 1.7 °F /  -16.8 °C 30.34in /  1027.3hPa SW 4.0mph /  6.4km/h 15.0mph /  24.1km/h 57% 0.00in /  0mm
17:19 14.0 °F /  -10 °C 1.2 °F /  -17.1 °C 30.34in /  1027.3hPa WSW 3.0mph /  4.8km/h 19.0mph /  30.6km/h 56% 0.00in /  0mm
17:24 13.8 °F /  -10.1 °C 1.0 °F /  -17.2 °C 30.35in /  1027.7hPa WSW 5.0mph /  8km/h 15.0mph /  24.1km/h 56% 0.00in /  0mm
17:29 13.7 °F /  -10.2 °C 0.9 °F /  -17.3 °C 30.35in /  1027.7hPa West 7.0mph /  11.3km/h 15.0mph /  24.1km/h 56% 0.00in /  0mm
17:34 13.6 °F /  -10.2 °C 1.2 °F /  -17.1 °C 30.35in /  1027.7hPa West 7.0mph /  11.3km/h 14.0mph /  22.5km/h 57% 0.00in /  0mm
17:39 13.5 °F /  -10.3 °C 1.4 °F /  -17 °C 30.35in /  1027.7hPa West 5.0mph /  8km/h 12.0mph /  19.3km/h 58% 0.00in /  0mm
17:44 13.5 °F /  -10.3 °C 1.4 °F /  -17 °C 30.35in /  1027.7hPa West 11.0mph /  17.7km/h 13.0mph /  20.9km/h 58% 0.00in /  0mm
17:49 13.4 °F /  -10.3 °C 1.4 °F /  -17 °C 30.36in /  1028hPa West 4.0mph /  6.4km/h 16.0mph /  25.7km/h 58% 0.00in /  0mm
17:54 13.3 °F /  -10.4 °C 1.3 °F /  -17.1 °C 30.36in /  1028hPa West 7.0mph /  11.3km/h 13.0mph /  20.9km/h 58% 0.00in /  0mm
17:59 13.3 °F /  -10.4 °C 1.3 °F /  -17.1 °C 30.36in /  1028hPa West 7.0mph /  11.3km/h 15.0mph /  24.1km/h 58% 0.00in /  0mm
18:04 13.3 °F /  -10.4 °C 1.3 °F /  -17.1 °C 30.36in /  1028hPa West 7.0mph /  11.3km/h 15.0mph /  24.1km/h 58% 0.00in /  0mm
18:09 13.3 °F /  -10.4 °C 1.3 °F /  -17.1 °C 30.37in /  1028.3hPa West 5.0mph /  8km/h 13.0mph /  20.9km/h 58% 0.00in /  0mm
18:14 13.4 °F /  -10.3 °C 1.7 °F /  -16.8 °C 30.36in /  1028hPa WSW 3.0mph /  4.8km/h 9.0mph /  14.5km/h 59% 0.00in /  0mm
18:19 13.5 °F /  -10.3 °C 1.8 °F /  -16.8 °C 30.37in /  1028.3hPa WSW 3.0mph /  4.8km/h 14.0mph /  22.5km/h 59% 0.00in /  0mm
18:24 13.5 °F /  -10.3 °C 1.8 °F /  -16.8 °C 30.37in /  1028.3hPa West 4.0mph /  6.4km/h 12.0mph /  19.3km/h 59% 0.00in /  0mm
18:29 13.4 °F /  -10.3 °C 1.7 °F /  -16.8 °C 30.37in /  1028.3hPa West 6.0mph /  9.7km/h 12.0mph /  19.3km/h 59% 0.00in /  0mm
18:34 13.3 °F /  -10.4 °C 2.0 °F /  -16.7 °C 30.37in /  1028.3hPa West 5.0mph /  8km/h 12.0mph /  19.3km/h 60% 0.00in /  0mm
18:39 13.3 °F /  -10.4 °C 2.0 °F /  -16.7 °C 30.37in /  1028.3hPa West 4.0mph /  6.4km/h 12.0mph /  19.3km/h 60% 0.00in /  0mm
18:44 13.2 °F /  -10.4 °C 1.9 °F /  -16.7 °C 30.37in /  1028.3hPa NW 2.0mph /  3.2km/h 9.0mph /  14.5km/h 60% 0.00in /  0mm
18:49 13.2 °F /  -10.4 °C 2.3 °F /  -16.5 °C 30.37in /  1028.3hPa West 4.0mph /  6.4km/h 10.0mph /  16.1km/h 61% 0.00in /  0mm
18:54 13.2 °F /  -10.4 °C 2.3 °F /  -16.5 °C 30.37in /  1028.3hPa WSW 5.0mph /  8km/h 8.0mph /  12.9km/h 61% 0.00in /  0mm
18:59 13.2 °F /  -10.4 °C 2.3 °F /  -16.5 °C 30.37in /  1028.3hPa WNW 7.0mph /  11.3km/h 10.0mph /  16.1km/h 61% 0.00in /  0mm
19:04 13.2 °F /  -10.4 °C 2.6 °F /  -16.3 °C 30.38in /  1028.7hPa West 5.0mph /  8km/h 13.0mph /  20.9km/h 62% 0.00in /  0mm
19:09 13.2 °F /  -10.4 °C 2.6 °F /  -16.3 °C 30.38in /  1028.7hPa West 6.0mph /  9.7km/h 13.0mph /  20.9km/h 62% 0.00in /  0mm
19:14 13.2 °F /  -10.4 °C 2.6 °F /  -16.3 °C 30.38in /  1028.7hPa West 7.0mph /  11.3km/h 12.0mph /  19.3km/h 62% 0.00in /  0mm
19:19 13.1 °F /  -10.5 °C 2.9 °F /  -16.2 °C 30.38in /  1028.7hPa West 6.0mph /  9.7km/h 11.0mph /  17.7km/h 63% 0.00in /  0mm
19:24 13.0 °F /  -10.6 °C 3.1 °F /  -16.1 °C 30.38in /  1028.7hPa West 5.0mph /  8km/h 9.0mph /  14.5km/h 64% 0.00in /  0mm
19:29 13.0 °F /  -10.6 °C 3.4 °F /  -15.9 °C 30.38in /  1028.7hPa WNW 4.0mph /  6.4km/h 11.0mph /  17.7km/h 65% 0.00in /  0mm
19:34 12.9 °F /  -10.6 °C 3.7 °F /  -15.7 °C 30.38in /  1028.7hPa West 6.0mph /  9.7km/h 11.0mph /  17.7km/h 66% 0.00in /  0mm
19:39 12.8 °F /  -10.7 °C 3.6 °F /  -15.8 °C 30.38in /  1028.7hPa West 6.0mph /  9.7km/h 11.0mph /  17.7km/h 66% 0.00in /  0mm
19:44 12.7 °F /  -10.7 °C 3.5 °F /  -15.8 °C 30.37in /  1028.3hPa West 3.0mph /  4.8km/h 8.0mph /  12.9km/h 66% 0.00in /  0mm
19:49 12.8 °F /  -10.7 °C 3.6 °F /  -15.8 °C 30.37in /  1028.3hPa West 2.0mph /  3.2km/h 7.0mph /  11.3km/h 66% 0.00in /  0mm
19:54 12.8 °F /  -10.7 °C 3.9 °F /  -15.6 °C 30.37in /  1028.3hPa West 4.0mph /  6.4km/h 7.0mph /  11.3km/h 67% 0.00in /  0mm
19:59 12.9 °F /  -10.6 °C 4.0 °F /  -15.6 °C 30.37in /  1028.3hPa West 4.0mph /  6.4km/h 9.0mph /  14.5km/h 67% 0.00in /  0mm
20:04 12.9 °F /  -10.6 °C 4.0 °F /  -15.6 °C 30.37in /  1028.3hPa West 6.0mph /  9.7km/h 8.0mph /  12.9km/h 67% 0.00in /  0mm
20:09 13.0 °F /  -10.6 °C 4.1 °F /  -15.5 °C 30.36in /  1028hPa WSW 5.0mph /  8km/h 12.0mph /  19.3km/h 67% 0.00in /  0mm
20:14 13.0 °F /  -10.6 °C 4.1 °F /  -15.5 °C 30.36in /  1028hPa WSW 5.0mph /  8km/h 12.0mph /  19.3km/h 67% 0.00in /  0mm
20:19 13.0 °F /  -10.6 °C 4.1 °F /  -15.5 °C 30.36in /  1028hPa WSW 4.0mph /  6.4km/h 10.0mph /  16.1km/h 67% 0.00in /  0mm
20:24 13.0 °F /  -10.6 °C 3.8 °F /  -15.7 °C 30.36in /  1028hPa WSW 4.0mph /  6.4km/h 10.0mph /  16.1km/h 66% 0.00in /  0mm
20:29 13.0 °F /  -10.6 °C 3.8 °F /  -15.7 °C 30.36in /  1028hPa WSW 4.0mph /  6.4km/h 8.0mph /  12.9km/h 66% 0.00in /  0mm
20:34 13.0 °F /  -10.6 °C 3.8 °F /  -15.7 °C 30.36in /  1028hPa West 3.0mph /  4.8km/h 6.0mph /  9.7km/h 66% 0.00in /  0mm
20:39 13.1 °F /  -10.5 °C 3.9 °F /  -15.6 °C 30.36in /  1028hPa West 3.0mph /  4.8km/h 7.0mph /  11.3km/h 66% 0.00in /  0mm
20:44 13.0 °F /  -10.6 °C 3.4 °F /  -15.9 °C 30.36in /  1028hPa West 3.0mph /  4.8km/h 7.0mph /  11.3km/h 65% 0.00in /  0mm
20:49 13.0 °F /  -10.6 °C 3.4 °F /  -15.9 °C 30.36in /  1028hPa West 6.0mph /  9.7km/h 9.0mph /  14.5km/h 65% 0.00in /  0mm
20:54 13.2 °F /  -10.4 °C 3.6 °F /  -15.8 °C 30.36in /  1028hPa WSW 3.0mph /  4.8km/h 10.0mph /  16.1km/h 65% 0.00in /  0mm
20:59 13.1 °F /  -10.5 °C 3.5 °F /  -15.8 °C 30.36in /  1028hPa West 3.0mph /  4.8km/h 7.0mph /  11.3km/h 65% 0.00in /  0mm
21:04 13.2 °F /  -10.4 °C 3.3 °F /  -15.9 °C 30.36in /  1028hPa West 3.0mph /  4.8km/h 7.0mph /  11.3km/h 64% 0.00in /  0mm
21:09 13.2 °F /  -10.4 °C 3.3 °F /  -15.9 °C 30.36in /  1028hPa West 5.0mph /  8km/h 8.0mph /  12.9km/h 64% 0.00in /  0mm
21:14 13.3 °F /  -10.4 °C 3.4 °F /  -15.9 °C 30.36in /  1028hPa West 4.0mph /  6.4km/h 8.0mph /  12.9km/h 64% 0.00in /  0mm
21:19 13.3 °F /  -10.4 °C 3.4 °F /  -15.9 °C 30.36in /  1028hPa WSW 3.0mph /  4.8km/h 6.0mph /  9.7km/h 64% 0.00in /  0mm
21:24 13.3 °F /  -10.4 °C 3.4 °F /  -15.9 °C 30.36in /  1028hPa West 3.0mph /  4.8km/h 6.0mph /  9.7km/h 64% 0.00in /  0mm
21:29 13.4 °F /  -10.3 °C 3.5 °F /  -15.8 °C 30.36in /  1028hPa West 3.0mph /  4.8km/h 7.0mph /  11.3km/h 64% 0.00in /  0mm
21:34 13.7 °F /  -10.2 °C 3.4 °F /  -15.9 °C 30.35in /  1027.7hPa WSW 5.0mph /  8km/h 11.0mph /  17.7km/h 63% 0.00in /  0mm
21:39 13.9 °F /  -10.1 °C 3.6 °F /  -15.8 °C 30.35in /  1027.7hPa West 6.0mph /  9.7km/h 10.0mph /  16.1km/h 63% 0.00in /  0mm
21:44 14.2 °F /  -9.9 °C 3.6 °F /  -15.8 °C 30.35in /  1027.7hPa West 5.0mph /  8km/h 10.0mph /  16.1km/h 62% 0.00in /  0mm
21:49 14.5 °F /  -9.7 °C 3.8 °F /  -15.7 °C 30.35in /  1027.7hPa West 8.0mph /  12.9km/h 11.0mph /  17.7km/h 62% 0.00in /  0mm
21:54 14.8 °F /  -9.6 °C 3.8 °F /  -15.7 °C 30.35in /  1027.7hPa West 5.0mph /  8km/h 13.0mph /  20.9km/h 61% 0.00in /  0mm
21:59 15.0 °F /  -9.4 °C 4.0 °F /  -15.6 °C 30.35in /  1027.7hPa West 9.0mph /  14.5km/h 13.0mph /  20.9km/h 61% 0.00in /  0mm
22:04 15.2 °F /  -9.3 °C 5.2 °F /  -14.9 °C 30.35in /  1027.7hPa West 7.0mph /  11.3km/h 12.0mph /  19.3km/h 64% 0.00in /  0mm
22:09 15.3 °F /  -9.3 °C 5.3 °F /  -14.8 °C 30.35in /  1027.7hPa SW 10.0mph /  16.1km/h 10.0mph /  16.1km/h 64% 0.00in /  0mm
22:14 15.5 °F /  -9.2 °C 6.2 °F /  -14.3 °C 30.35in /  1027.7hPa WSW 6.0mph /  9.7km/h 15.0mph /  24.1km/h 66% 0.00in /  0mm
22:19 15.5 °F /  -9.2 °C 6.5 °F /  -14.2 °C 30.34in /  1027.3hPa WSW 6.0mph /  9.7km/h 15.0mph /  24.1km/h 67% 0.00in /  0mm
22:24 15.6 °F /  -9.1 °C 6.9 °F /  -13.9 °C 30.34in /  1027.3hPa WSW 6.0mph /  9.7km/h 14.0mph /  22.5km/h 68% 0.00in /  0mm
22:29 15.5 °F /  -9.2 °C 7.1 °F /  -13.8 °C 30.34in /  1027.3hPa WSW 6.0mph /  9.7km/h 14.0mph /  22.5km/h 69% 0.00in /  0mm
22:34 15.4 °F /  -9.2 °C 7.4 °F /  -13.7 °C 30.34in /  1027.3hPa SW 7.0mph /  11.3km/h 13.0mph /  20.9km/h 70% 0.00in /  0mm
22:39 15.4 °F /  -9.2 °C 7.7 °F /  -13.5 °C 30.34in /  1027.3hPa SW 5.0mph /  8km/h 12.0mph /  19.3km/h 71% 0.00in /  0mm
22:44 15.4 °F /  -9.2 °C 7.7 °F /  -13.5 °C 30.34in /  1027.3hPa WSW 6.0mph /  9.7km/h 14.0mph /  22.5km/h 71% 0.00in /  0mm
22:49 15.5 °F /  -9.2 °C 8.1 °F /  -13.3 °C 30.34in /  1027.3hPa WSW 7.0mph /  11.3km/h 14.0mph /  22.5km/h 72% 0.00in /  0mm
22:54 15.5 °F /  -9.2 °C 8.1 °F /  -13.3 °C 30.34in /  1027.3hPa WSW 8.0mph /  12.9km/h 14.0mph /  22.5km/h 72% 0.00in /  0mm
22:59 15.6 °F /  -9.1 °C 8.2 °F /  -13.2 °C 30.34in /  1027.3hPa WNW 8.0mph /  12.9km/h 14.0mph /  22.5km/h 72% 0.00in /  0mm
23:04 15.6 °F /  -9.1 °C 8.5 °F /  -13.1 °C 30.34in /  1027.3hPa WSW 7.0mph /  11.3km/h 14.0mph /  22.5km/h 73% 0.00in /  0mm
23:09 15.6 °F /  -9.1 °C 8.5 °F /  -13.1 °C 30.33in /  1027hPa WSW 9.0mph /  14.5km/h 11.0mph /  17.7km/h 73% 0.00in /  0mm
23:14 15.6 °F /  -9.1 °C 8.8 °F /  -12.9 °C 30.33in /  1027hPa SW 5.0mph /  8km/h 11.0mph /  17.7km/h 74% 0.00in /  0mm
23:19 15.7 °F /  -9.1 °C 9.2 °F /  -12.7 °C 30.33in /  1027hPa WSW 6.0mph /  9.7km/h 11.0mph /  17.7km/h 75% 0.00in /  0mm
23:24 15.6 °F /  -9.1 °C 9.4 °F /  -12.6 °C 30.34in /  1027.3hPa WSW 5.0mph /  8km/h 10.0mph /  16.1km/h 76% 0.00in /  0mm
23:29 15.5 °F /  -9.2 °C 9.6 °F /  -12.4 °C 30.33in /  1027hPa WSW 5.0mph /  8km/h 10.0mph /  16.1km/h 77% 0.00in /  0mm
23:34 15.4 °F /  -9.2 °C 9.8 °F /  -12.3 °C 30.33in /  1027hPa WSW 5.0mph /  8km/h 9.0mph /  14.5km/h 78% 0.00in /  0mm
23:39 15.2 °F /  -9.3 °C 9.9 °F /  -12.3 °C 30.33in /  1027hPa WSW 6.0mph /  9.7km/h 9.0mph /  14.5km/h 79% 0.00in /  0mm
23:44 15.0 °F /  -9.4 °C 9.9 °F /  -12.3 °C 30.33in /  1027hPa West 5.0mph /  8km/h 8.0mph /  12.9km/h 80% 0.00in /  0mm
23:49 15.0 °F /  -9.4 °C 10.2 °F /  -12.1 °C 30.33in /  1027hPa WSW 5.0mph /  8km/h 8.0mph /  12.9km/h 81% 0.00in /  0mm
23:54 14.8 °F /  -9.6 °C 10.0 °F /  -12.2 °C 30.33in /  1027hPa WSW 5.0mph /  8km/h 8.0mph /  12.9km/h 81% 0.00in /  0mm
23:59 14.7 °F /  -9.6 °C 10.2 °F /  -12.1 °C 30.33in /  1027hPa WSW 5.0mph /  8km/h 8.0mph /  12.9km/h 82% 0.00in /  0mm
Buffalo, New York, USA
Compliments of Weather Underground - 2.5 mb